Time;durP1;ratioP1;P1;durP2;ratioP2;P2;SDS_P1;SDS_P2;PMS_P1;PMS_P2;Temp;Humidity;BMP_temperature;BMP_pressure;BME280_temperature;BME280_humidity;BME280_pressure;Samples;Min_cycle;Max_cycle;Signal;HPM_P1;HPM_P2
2023/01/05 00:01:42;;;;;;;1.40;0.90;;;;;;;;;;5133689;27;20469;-64
2023/01/05 00:04:10;;;;;;;1.03;0.60;;;;;;;;;;5133606;27;20023;-63
2023/01/05 00:06:38;;;;;;;2.83;1.13;;;;;;;;;;5129234;27;20076;-64
2023/01/05 00:09:05;;;;;;;1.93;0.70;;;;;;;;;;5120060;27;20069;-65
2023/01/05 00:22:38;;;;;;;1.20;0.60;;;;;;;;;;5132803;27;20077;-63
2023/01/05 00:25:07;;;;;;;1.97;0.50;;;;;;;;;;5133267;27;20495;-65
2023/01/05 00:27:34;;;;;;;1.33;0.63;;;;;;;;;;5113308;28;20080;-64
2023/01/05 00:30:01;;;;;;;1.67;0.70;;;;;;;;;;5107457;28;20028;-63
2023/01/05 00:32:28;;;;;;;2.20;0.60;;;;;;;;;;5107270;28;20053;-66
2023/01/05 00:34:55;;;;;;;1.60;0.70;;;;;;;;;;5107432;28;20027;-63
2023/01/05 00:37:23;;;;;;;2.10;0.90;;;;;;;;;;5123603;28;20110;-64
2023/01/05 00:39:50;;;;;;;0.63;0.47;;;;;;;;;;5128225;28;20020;-64
2023/01/05 00:42:17;;;;;;;1.47;0.93;;;;;;;;;;5127519;28;20081;-64
2023/01/05 00:44:43;;;;;;;4.90;0.70;;;;;;;;;;5133045;28;20469;-64
2023/01/05 00:47:10;;;;;;;1.83;1.10;;;;;;;;;;5132985;27;20026;-64
2023/01/05 00:49:37;;;;;;;1.43;0.80;;;;;;;;;;5133432;27;20027;-64
2023/01/05 00:52:04;;;;;;;1.77;1.03;;;;;;;;;;5132005;27;20011;-63
2023/01/05 00:54:31;;;;;;;1.30;0.97;;;;;;;;;;5129860;27;20075;-64
2023/01/05 00:56:58;;;;;;;0.87;0.53;;;;;;;;;;5110990;28;20035;-63
2023/01/05 00:59:24;;;;;;;1.73;0.97;;;;;;;;;;5113233;27;20481;-63
2023/01/05 01:01:52;;;;;;;4.23;1.67;;;;;;;;;;5115777;28;20042;-63
2023/01/05 01:04:19;;;;;;;4.10;1.17;;;;;;;;;;5117202;27;20481;-64
2023/01/05 01:06:46;;;;;;;2.93;1.10;;;;;;;;;;5118262;27;20130;-65
2023/01/05 01:09:13;;;;;;;0.87;0.70;;;;;;;;;;5125330;27;20105;-64
2023/01/05 01:11:40;;;;;;;1.67;1.00;;;;;;;;;;5118842;27;20445;-63
2023/01/05 01:14:07;;;;;;;0.77;0.40;;;;;;;;;;5111057;28;20031;-63
2023/01/05 01:16:34;;;;;;;4.73;1.20;;;;;;;;;;5110896;28;20474;-63
2023/01/05 01:19:01;;;;;;;1.07;0.73;;;;;;;;;;5111805;27;20102;-63
2023/01/05 01:21:28;;;;;;;1.47;0.90;;;;;;;;;;5110777;28;20488;-63
2023/01/05 01:23:54;;;;;;;1.63;0.70;;;;;;;;;;5114680;28;20023;-64
2023/01/05 01:26:21;;;;;;;2.53;0.80;;;;;;;;;;5115960;28;20496;-63
2023/01/05 01:28:48;;;;;;;0.70;0.63;;;;;;;;;;5113324;27;20016;-63
2023/01/05 01:31:15;;;;;;;2.43;1.10;;;;;;;;;;5094841;28;20412;-63
2023/01/05 01:33:42;;;;;;;0.87;0.70;;;;;;;;;;5095519;28;20107;-63
2023/01/05 01:36:09;;;;;;;0.80;0.53;;;;;;;;;;5091235;28;20156;-63
2023/01/05 01:38:36;;;;;;;0.87;0.67;;;;;;;;;;5090541;28;20074;-64
2023/01/05 01:41:02;;;;;;;1.13;0.67;;;;;;;;;;5129905;27;20362;-63
2023/01/05 01:43:41;;;;;;;2.10;1.27;;;;;;;;;;5131051;27;20103;-63
2023/01/05 01:46:08;;;;;;;1.47;0.90;;;;;;;;;;5134370;27;20027;-62
2023/01/05 01:48:36;;;;;;;1.33;1.00;;;;;;;;;;5135398;27;20533;-63
2023/01/05 01:51:04;;;;;;;3.73;1.63;;;;;;;;;;5115581;28;20020;-63
2023/01/05 01:53:34;;;;;;;2.20;1.10;;;;;;;;;;5114018;28;20024;-63
2023/01/05 01:56:01;;;;;;;2.37;1.53;;;;;;;;;;5115403;28;20023;-63
2023/01/05 01:58:30;;;;;;;0.90;0.70;;;;;;;;;;5111382;28;20036;-63
2023/01/05 02:01:00;;;;;;;1.87;1.20;;;;;;;;;;5109693;27;20493;-63
2023/01/05 02:03:28;;;;;;;1.67;1.10;;;;;;;;;;5113311;27;20020;-64
2023/01/05 02:05:55;;;;;;;9.70;1.93;;;;;;;;;;5110138;28;20042;-62
2023/01/05 02:08:30;;;;;;;1.53;0.73;;;;;;;;;;5113188;28;20098;-63
2023/01/05 02:10:56;;;;;;;;;;;;;;;;;;5105086;28;20447;-63
2023/01/05 02:13:32;;;;;;;3.17;1.40;;;;;;;;;;5097999;28;20334;-62
2023/01/05 02:16:17;;;;;;;1.40;1.10;;;;;;;;;;5115966;27;20038;-63
2023/01/05 02:18:56;;;;;;;1.53;0.83;;;;;;;;;;5115164;28;20024;-64
2023/01/05 02:21:38;;;;;;;1.27;0.90;;;;;;;;;;5109533;28;20023;-63
2023/01/05 02:24:17;;;;;;;1.37;0.77;;;;;;;;;;5110097;27;20024;-62
2023/01/05 02:27:02;;;;;;;0.80;0.57;;;;;;;;;;5130186;27;20079;-62
2023/01/05 02:29:29;;;;;;;0.50;0.50;;;;;;;;;;5130270;27;20072;-63
2023/01/05 02:31:56;;;;;;;1.20;0.80;;;;;;;;;;5127639;27;20046;-63
2023/01/05 02:34:30;;;;;;;2.20;1.37;;;;;;;;;;5114667;28;20034;-62
2023/01/05 02:37:10;;;;;;;3.42;1.23;;;;;;;;;;5114613;28;20039;-63
2023/01/05 02:39:48;;;;;;;3.40;1.17;;;;;;;;;;5115571;27;20085;-63
2023/01/05 02:42:20;;;;;;;2.20;0.93;;;;;;;;;;5112418;28;20024;-63
2023/01/05 02:44:47;;;;;;;2.73;1.60;;;;;;;;;;5109361;28;20027;-62
2023/01/05 02:47:29;;;;;;;5.33;1.93;;;;;;;;;;5109304;28;20051;-62
2023/01/05 02:49:58;;;;;;;2.37;1.57;;;;;;;;;;5128004;27;20473;-62
2023/01/05 02:52:26;;;;;;;1.10;0.80;;;;;;;;;;5131835;27;20562;-62
2023/01/05 02:55:00;;;;;;;3.10;1.53;;;;;;;;;;5134723;27;20096;-62
2023/01/05 02:57:45;;;;;;;;;;;;;;;;;;5135323;27;20035;-62
2023/01/05 03:00:15;;;;;;;8.30;1.73;;;;;;;;;;5093163;28;19908;-63
2023/01/05 03:02:43;;;;;;;12.00;2.27;;;;;;;;;;5093838;28;20049;-62
2023/01/05 03:05:12;;;;;;;4.63;1.80;;;;;;;;;;5090247;28;20020;-62
2023/01/05 03:07:40;;;;;;;4.27;1.53;;;;;;;;;;5089957;27;20020;-63
2023/01/05 03:15:41;;;;;;;1.53;1.17;;;;;;;;;;5124763;27;20542;-63
2023/01/05 03:18:10;;;;;;;10.70;1.43;;;;;;;;;;5127207;27;20042;-62
2023/01/05 03:20:39;;;;;;;0.97;0.90;;;;;;;;;;5131768;27;20517;-63
2023/01/05 03:37:06;;;;;;;1.80;1.27;;;;;;;;;;5110102;28;20088;-62
2023/01/05 03:39:34;;;;;;;2.47;1.23;;;;;;;;;;5112003;28;20381;-62
2023/01/05 03:42:01;;;;;;;2.83;1.97;;;;;;;;;;5113440;28;20062;-63
2023/01/05 03:44:28;;;;;;;3.80;2.10;;;;;;;;;;5114229;27;20043;-62
2023/01/05 03:46:54;;;;;;;9.87;2.80;;;;;;;;;;5121709;27;20118;-62
2023/01/05 03:49:21;;;;;;;1.97;1.10;;;;;;;;;;5117431;27;20028;-62
2023/01/05 03:51:48;;;;;;;3.97;1.87;;;;;;;;;;5107776;27;20034;-62
2023/01/05 03:54:15;;;;;;;2.27;1.60;;;;;;;;;;5110183;27;20103;-62
2023/01/05 03:56:41;;;;;;;2.07;1.27;;;;;;;;;;5128394;27;20030;-61
2023/01/05 03:59:08;;;;;;;2.33;1.33;;;;;;;;;;5130070;27;20015;-61
2023/01/05 04:01:35;;;;;;;4.73;2.43;;;;;;;;;;5133484;27;20023;-63
2023/01/05 04:04:01;;;;;;;2.83;1.30;;;;;;;;;;5131962;27;20407;-62
2023/01/05 04:06:28;;;;;;;4.40;2.67;;;;;;;;;;5113211;28;20029;-62
2023/01/05 04:08:55;;;;;;;7.57;2.33;;;;;;;;;;5112861;28;20023;-62
2023/01/05 04:11:22;;;;;;;1.77;1.30;;;;;;;;;;5097067;28;20041;-62
2023/01/05 04:13:49;;;;;;;4.37;1.67;;;;;;;;;;5087384;28;20804;-61
2023/01/05 04:16:16;;;;;;;11.53;2.40;;;;;;;;;;5087363;28;20027;-63
2023/01/05 04:18:43;;;;;;;6.03;2.30;;;;;;;;;;5107305;28;20110;-62
2023/01/05 04:21:10;;;;;;;8.87;2.57;;;;;;;;;;5108437;28;20115;-62
2023/01/05 04:23:37;;;;;;;4.27;2.83;;;;;;;;;;5112424;28;20486;-61
2023/01/05 04:26:04;;;;;;;3.17;2.13;;;;;;;;;;5112637;28;20026;-61
2023/01/05 04:28:31;;;;;;;4.40;2.30;;;;;;;;;;5131415;28;20023;-62
2023/01/05 04:30:58;;;;;;;5.47;2.83;;;;;;;;;;5133128;28;20033;-62
2023/01/05 04:33:25;;;;;;;3.13;1.23;;;;;;;;;;5131868;28;20083;-62
2023/01/05 04:35:52;;;;;;;5.03;2.07;;;;;;;;;;5127577;27;20023;-61
2023/01/05 04:38:18;;;;;;;3.60;2.07;;;;;;;;;;5111097;28;20386;-61
2023/01/05 04:40:51;;;;;;;5.27;2.57;;;;;;;;;;5107290;28;20031;-61
2023/01/05 04:43:19;;;;;;;5.93;2.43;;;;;;;;;;5112217;28;20019;-62
2023/01/05 04:45:48;;;;;;;3.80;1.80;;;;;;;;;;5133261;28;20469;-62
2023/01/05 04:48:15;;;;;;;9.87;3.33;;;;;;;;;;5133014;28;20027;-62
2023/01/05 04:50:42;;;;;;;7.13;2.57;;;;;;;;;;5132551;28;20042;-62
2023/01/05 04:53:09;;;;;;;2.10;1.47;;;;;;;;;;5130482;28;20027;-62
2023/01/05 04:55:35;;;;;;;11.33;2.30;;;;;;;;;;5111109;28;20470;-62
2023/01/05 04:58:02;;;;;;;3.20;2.10;;;;;;;;;;5119872;28;20039;-62
2023/01/05 05:00:32;;;;;;;10.57;2.97;;;;;;;;;;5127283;28;20023;-63
2023/01/05 05:02:59;;;;;;;5.27;1.83;;;;;;;;;;5127603;28;20030;-62
2023/01/05 05:05:26;;;;;;;5.37;1.77;;;;;;;;;;5128229;27;20030;-63
2023/01/05 05:07:52;;;;;;;1.70;1.33;;;;;;;;;;5121502;28;20088;-63
2023/01/05 05:10:19;;;;;;;2.80;2.20;;;;;;;;;;5113404;28;20112;-62
2023/01/05 05:12:46;;;;;;;4.30;2.20;;;;;;;;;;5111036;28;20030;-64
2023/01/05 05:15:13;;;;;;;2.00;1.37;;;;;;;;;;5112183;28;20378;-62
2023/01/05 05:17:39;;;;;;;4.60;2.20;;;;;;;;;;5110938;28;20028;-62
2023/01/05 05:20:06;;;;;;;8.33;3.03;;;;;;;;;;5107692;28;20042;-63
2023/01/05 05:22:33;;;;;;;2.37;1.47;;;;;;;;;;5106884;28;20027;-62
2023/01/05 05:25:00;;;;;;;2.93;1.90;;;;;;;;;;5106681;28;20512;-63
2023/01/05 05:27:29;;;;;;;1.80;1.57;;;;;;;;;;5106995;28;20134;-63
2023/01/05 05:29:55;;;;;;;3.30;1.87;;;;;;;;;;5112351;28;20058;-62
2023/01/05 05:32:22;;;;;;;3.37;2.30;;;;;;;;;;5112977;28;20485;-63
2023/01/05 05:34:49;;;;;;;1.80;1.57;;;;;;;;;;5134158;27;20080;-62
2023/01/05 05:37:16;;;;;;;4.57;2.80;;;;;;;;;;5136333;27;20458;-62
2023/01/05 05:39:43;;;;;;;3.97;2.37;;;;;;;;;;5132595;27;20032;-62
2023/01/05 05:42:09;;;;;;;2.80;2.00;;;;;;;;;;5110432;28;20031;-62
2023/01/05 05:44:36;;;;;;;2.13;1.53;;;;;;;;;;5112081;27;20024;-62
2023/01/05 05:47:03;;;;;;;7.33;2.73;;;;;;;;;;5131091;27;20098;-62
2023/01/05 05:49:29;;;;;;;4.97;2.30;;;;;;;;;;5130783;27;20080;-62
2023/01/05 05:51:56;;;;;;;4.00;2.53;;;;;;;;;;5135625;27;20058;-62
2023/01/05 05:54:23;;;;;;;3.97;2.43;;;;;;;;;;5136058;27;20032;-62
2023/01/05 05:56:49;;;;;;;5.77;2.77;;;;;;;;;;5132333;27;20477;-61
2023/01/05 05:59:16;;;;;;;4.83;1.90;;;;;;;;;;5115397;28;20055;-62
2023/01/05 06:01:43;;;;;;;4.93;2.97;;;;;;;;;;5115343;28;20024;-63
2023/01/05 06:04:10;;;;;;;4.30;2.57;;;;;;;;;;5110408;28;20035;-62
2023/01/05 06:06:38;;;;;;;5.40;2.50;;;;;;;;;;5124511;27;20031;-62
2023/01/05 06:09:05;;;;;;;3.63;2.33;;;;;;;;;;5130421;27;20023;-62
2023/01/05 06:11:32;;;;;;;3.20;2.30;;;;;;;;;;5130437;27;20023;-62
2023/01/05 06:13:59;;;;;;;3.23;1.97;;;;;;;;;;5134355;27;20026;-63
2023/01/05 06:16:25;;;;;;;4.00;2.53;;;;;;;;;;5122476;27;20080;-62
2023/01/05 06:18:52;;;;;;;2.90;2.00;;;;;;;;;;5114944;28;20031;-62
2023/01/05 06:21:20;;;;;;;3.30;2.10;;;;;;;;;;5115099;28;20027;-63
2023/01/05 06:23:47;;;;;;;2.00;1.60;;;;;;;;;;5115059;28;20019;-62
2023/01/05 06:26:14;;;;;;;3.93;2.67;;;;;;;;;;5110189;28;20019;-62
2023/01/05 06:28:41;;;;;;;3.13;2.40;;;;;;;;;;5126007;27;20023;-62
2023/01/05 06:31:07;;;;;;;3.80;2.53;;;;;;;;;;5129653;27;20027;-62
2023/01/05 06:33:34;;;;;;;9.60;3.50;;;;;;;;;;5130299;27;20532;-62
2023/01/05 06:36:01;;;;;;;6.90;3.03;;;;;;;;;;5133608;27;20023;-62
2023/01/05 06:38:29;;;;;;;2.33;1.70;;;;;;;;;;5134677;27;20063;-62
2023/01/05 06:40:56;;;;;;;4.33;2.80;;;;;;;;;;5094268;28;20078;-62
2023/01/05 06:43:23;;;;;;;4.97;2.30;;;;;;;;;;5093971;28;20028;-63
2023/01/05 06:45:51;;;;;;;4.57;2.57;;;;;;;;;;5094085;28;20027;-62
2023/01/05 06:48:18;;;;;;;2.23;1.57;;;;;;;;;;5090171;28;20356;-62
2023/01/05 06:50:45;;;;;;;4.40;2.10;;;;;;;;;;5096337;27;20130;-62
2023/01/05 06:53:11;;;;;;;1.90;1.30;;;;;;;;;;5129538;27;20031;-62
2023/01/05 06:55:38;;;;;;;3.93;2.90;;;;;;;;;;5129589;27;20079;-63
2023/01/05 06:58:05;;;;;;;2.63;1.93;;;;;;;;;;5132451;27;20476;-62
2023/01/05 07:00:31;;;;;;;2.57;1.90;;;;;;;;;;5134520;27;20019;-62
2023/01/05 07:02:58;;;;;;;5.20;2.77;;;;;;;;;;5130431;27;20071;-62
2023/01/05 07:05:25;;;;;;;2.03;1.70;;;;;;;;;;5113917;27;20015;-61
2023/01/05 07:07:52;;;;;;;3.23;2.30;;;;;;;;;;5114129;28;20047;-62
2023/01/05 07:10:18;;;;;;;4.33;2.40;;;;;;;;;;5110877;28;20047;-62
2023/01/05 07:12:45;;;;;;;2.53;1.80;;;;;;;;;;5108910;28;20028;-62
2023/01/05 07:15:12;;;;;;;2.37;1.27;;;;;;;;;;5113535;27;20559;-62
2023/01/05 07:17:39;;;;;;;3.03;2.30;;;;;;;;;;5129001;27;20035;-62
2023/01/05 07:20:06;;;;;;;3.37;2.20;;;;;;;;;;5131564;27;20083;-61
2023/01/05 07:22:33;;;;;;;6.40;2.97;;;;;;;;;;5134293;27;20023;-61
2023/01/05 07:25:00;;;;;;;4.80;3.23;;;;;;;;;;5134230;27;20027;-61
2023/01/05 07:27:27;;;;;;;2.03;1.57;;;;;;;;;;5128968;27;20019;-62
2023/01/05 07:29:53;;;;;;;2.93;2.40;;;;;;;;;;5113710;28;20100;-62
2023/01/05 07:32:20;;;;;;;10.43;2.47;;;;;;;;;;5111027;28;20478;-62
2023/01/05 07:34:47;;;;;;;4.40;2.83;;;;;;;;;;5108225;28;20074;-61
2023/01/05 07:37:14;;;;;;;6.07;3.40;;;;;;;;;;5107887;28;20038;-61
2023/01/05 07:39:41;;;;;;;3.77;2.33;;;;;;;;;;5117113;27;20182;-62
2023/01/05 07:42:07;;;;;;;7.77;3.07;;;;;;;;;;5130834;27;20023;-62
2023/01/05 07:44:34;;;;;;;4.77;2.50;;;;;;;;;;5134064;27;20026;-61
2023/01/05 07:47:01;;;;;;;8.60;2.53;;;;;;;;;;5134104;27;20504;-62
2023/01/05 07:49:28;;;;;;;3.57;2.17;;;;;;;;;;5133949;27;20047;-61
2023/01/05 07:51:55;;;;;;;1.93;1.53;;;;;;;;;;5123504;27;20031;-62
2023/01/05 07:54:21;;;;;;;3.33;2.33;;;;;;;;;;5110589;28;20051;-62
2023/01/05 07:56:48;;;;;;;2.63;2.07;;;;;;;;;;5107538;28;20373;-61
2023/01/05 07:59:15;;;;;;;9.03;2.77;;;;;;;;;;5107743;28;20052;-61
2023/01/05 08:01:41;;;;;;;3.90;2.83;;;;;;;;;;5108028;28;20248;-61
2023/01/05 08:04:09;;;;;;;3.87;2.27;;;;;;;;;;5121433;27;20050;-62
2023/01/05 08:06:36;;;;;;;5.67;2.97;;;;;;;;;;5133661;27;20051;-61
2023/01/05 08:10:27;;;;;;;2.87;1.97;;;;;;;;;;5133306;27;20086;-63
2023/01/05 08:11:49;;;;;;;8.53;2.67;;;;;;;;;;5133377;27;20038;-61
2023/01/05 08:14:16;;;;;;;3.10;2.07;;;;;;;;;;5133376;27;20374;-62
2023/01/05 08:16:42;;;;;;;3.47;2.57;;;;;;;;;;5113935;27;20377;-62
2023/01/05 08:19:10;;;;;;;20.90;2.60;;;;;;;;;;5107671;28;20031;-62
2023/01/05 08:21:36;;;;;;;2.33;1.70;;;;;;;;;;5114202;28;20255;-62
2023/01/05 08:24:03;;;;;;;3.13;1.67;;;;;;;;;;5127803;27;20259;-61
2023/01/05 08:26:30;;;;;;;4.40;2.70;;;;;;;;;;5129563;27;20254;-63
2023/01/05 08:28:57;;;;;;;3.83;2.90;;;;;;;;;;5133445;27;20027;-63
2023/01/05 08:31:25;;;;;;;5.33;2.80;;;;;;;;;;5128994;28;20716;-62
2023/01/05 08:33:54;;;;;;;2.97;2.10;;;;;;;;;;5112753;28;20037;-62
2023/01/05 08:36:21;;;;;;;3.50;2.77;;;;;;;;;;5112734;28;20497;-62
2023/01/05 08:38:51;;;;;;;5.13;2.50;;;;;;;;;;5110398;28;20295;-62
2023/01/05 08:41:27;;;;;;;3.13;2.67;;;;;;;;;;5107393;28;20031;-62
2023/01/05 08:43:55;;;;;;;6.37;3.33;;;;;;;;;;5112983;28;20271;-62
2023/01/05 08:46:23;;;;;;;2.20;1.80;;;;;;;;;;5127811;28;20255;-62
2023/01/05 08:48:51;;;;;;;2.30;1.80;;;;;;;;;;5129462;28;20263;-62
2023/01/05 08:51:17;;;;;;;2.50;2.00;;;;;;;;;;5133031;28;20255;-62
2023/01/05 08:53:44;;;;;;;2.23;1.93;;;;;;;;;;5128946;28;20287;-62
2023/01/05 08:56:11;;;;;;;2.23;1.70;;;;;;;;;;5112586;28;20254;-62
2023/01/05 08:58:38;;;;;;;3.83;2.60;;;;;;;;;;5112484;28;20284;-62
2023/01/05 09:01:08;;;;;;;5.23;3.03;;;;;;;;;;5110663;28;20256;-62
2023/01/05 09:03:36;;;;;;;21.77;3.30;;;;;;;;;;5107206;28;20267;-61
2023/01/05 09:06:03;;;;;;;4.60;1.80;;;;;;;;;;5111113;28;20271;-62
2023/01/05 09:08:31;;;;;;;1.87;1.67;;;;;;;;;;5125913;27;20350;-61
2023/01/05 09:11:08;;;;;;;5.80;3.43;;;;;;;;;;5132118;27;20263;-62
2023/01/05 09:13:35;;;;;;;2.57;2.10;;;;;;;;;;5136932;27;20766;-61
2023/01/05 09:16:08;;;;;;;2.30;2.07;;;;;;;;;;5130886;27;20287;-62
2023/01/05 09:18:35;;;;;;;4.67;2.83;;;;;;;;;;5116059;28;20811;-62
2023/01/05 09:21:03;;;;;;;1.73;1.50;;;;;;;;;;5115737;28;20355;-61
2023/01/05 09:23:29;;;;;;;6.13;3.33;;;;;;;;;;5114035;28;20726;-62
2023/01/05 09:25:56;;;;;;;5.40;3.03;;;;;;;;;;5111898;27;20320;-61
2023/01/05 09:28:23;;;;;;;2.23;1.83;;;;;;;;;;5110732;28;20299;-61
2023/01/05 09:30:50;;;;;;;5.57;3.97;;;;;;;;;;5110867;28;20252;-61
2023/01/05 09:33:16;;;;;;;3.00;2.00;;;;;;;;;;5112063;28;20351;-61
2023/01/05 09:35:43;;;;;;;3.93;2.97;;;;;;;;;;5115783;28;20252;-62
2023/01/05 09:38:10;;;;;;;3.97;3.07;;;;;;;;;;5119426;27;20291;-61
2023/01/05 09:40:42;;;;;;;5.43;3.93;;;;;;;;;;5136389;27;20256;-62
2023/01/05 09:43:29;;;;;;;3.10;2.47;;;;;;;;;;5136506;27;20260;-61
2023/01/05 09:45:56;;;;;;;3.07;2.33;;;;;;;;;;5133626;27;20252;-61
2023/01/05 09:48:23;;;;;;;2.47;2.07;;;;;;;;;;5130645;27;20259;-61
2023/01/05 09:50:50;;;;;;;4.50;2.50;;;;;;;;;;5119080;27;20271;-61
2023/01/05 09:53:19;;;;;;;4.03;2.43;;;;;;;;;;5110365;28;20271;-61
2023/01/05 09:55:48;;;;;;;6.03;2.97;;;;;;;;;;5112153;28;20583;-62
2023/01/05 09:58:16;;;;;;;4.37;2.63;;;;;;;;;;5115474;28;20288;-61
2023/01/05 10:00:46;;;;;;;2.27;1.80;;;;;;;;;;5115437;28;20394;-62
2023/01/05 10:03:15;;;;;;;5.80;3.73;;;;;;;;;;5129234;27;20271;-61
2023/01/05 10:05:43;;;;;;;5.83;2.33;;;;;;;;;;5135831;27;20356;-60
2023/01/05 10:08:16;;;;;;;4.07;2.70;;;;;;;;;;5132931;27;20602;-61
2023/01/05 10:13:39;;;;;;;2.57;2.10;;;;;;;;;;5126868;27;20290;-61
2023/01/05 10:16:06;;;;;;;3.07;2.33;;;;;;;;;;5108481;28;20754;-62
2023/01/05 10:18:33;;;;;;;2.70;2.07;;;;;;;;;;5112740;28;20362;-62
2023/01/05 10:21:24;;;;;;;5.13;3.40;;;;;;;;;;5114798;28;20255;-61
2023/01/05 10:23:51;;;;;;;3.47;2.73;;;;;;;;;;5115095;28;20278;-61
2023/01/05 10:26:30;;;;;;;10.50;3.83;;;;;;;;;;5124629;27;20267;-61
2023/01/05 10:29:07;;;;;;;4.57;3.03;;;;;;;;;;5135754;27;20606;-62
2023/01/05 10:31:43;;;;;;;3.47;2.83;;;;;;;;;;5122811;27;20789;-62
2023/01/05 10:34:20;;;;;;;2.47;1.70;;;;;;;;;;5109668;28;20270;-61
2023/01/05 10:36:46;;;;;;;4.23;3.13;;;;;;;;;;5109533;28;20256;-61
2023/01/05 10:39:30;;;;;;;3.47;2.83;;;;;;;;;;5109458;28;20272;-61
2023/01/05 10:41:59;;;;;;;11.13;3.80;;;;;;;;;;5123268;27;20757;-61
2023/01/05 10:44:35;;;;;;;3.33;2.63;;;;;;;;;;5135313;27;20251;-61
2023/01/05 10:47:02;;;;;;;3.80;2.63;;;;;;;;;;5135047;27;20330;-62
2023/01/05 10:49:30;;;;;;;3.60;3.00;;;;;;;;;;5133557;27;20296;-62
2023/01/05 10:51:58;;;;;;;3.53;2.87;;;;;;;;;;5133693;27;20258;-61
2023/01/05 10:54:33;;;;;;;2.77;2.13;;;;;;;;;;5120268;27;20267;-61
2023/01/05 10:57:18;;;;;;;3.37;2.23;;;;;;;;;;5108943;28;20267;-61
2023/01/05 10:59:55;;;;;;;4.65;3.75;;;;;;;;;;5108930;28;20280;-61
2023/01/05 11:02:23;;;;;;;4.53;2.87;;;;;;;;;;5110482;28;20023;-61
2023/01/05 11:04:50;;;;;;;3.40;2.70;;;;;;;;;;5121687;27;20790;-62
2023/01/05 11:07:17;;;;;;;3.03;2.73;;;;;;;;;;5134625;27;20263;-61
2023/01/05 11:09:45;;;;;;;5.03;2.97;;;;;;;;;;5134645;27;20342;-62
2023/01/05 11:12:18;;;;;;;11.20;4.07;;;;;;;;;;5134738;27;20260;-61
2023/01/05 11:14:47;;;;;;;3.30;2.57;;;;;;;;;;5131661;27;20243;-61
2023/01/05 11:17:18;;;;;;;2.77;2.00;;;;;;;;;;5118307;27;20363;-61
2023/01/05 11:19:46;;;;;;;3.60;1.93;;;;;;;;;;5108567;28;20264;-61
2023/01/05 11:22:47;;;;;;;4.03;3.33;;;;;;;;;;5108602;28;20302;-62
2023/01/05 11:25:27;;;;;;;2.20;1.93;;;;;;;;;;5097265;28;20295;-61
2023/01/05 11:28:14;;;;;;;4.60;3.47;;;;;;;;;;5113793;28;20260;-61
2023/01/05 11:31:02;;;;;;;2.70;2.30;;;;;;;;;;5092859;28;20290;-61
2023/01/05 11:33:30;;;;;;;8.33;3.63;;;;;;;;;;5092277;28;20375;-61
2023/01/05 11:35:57;;;;;;;8.77;4.07;;;;;;;;;;5092931;28;20394;-61
2023/01/05 11:38:28;;;;;;;3.47;2.83;;;;;;;;;;5087810;28;20303;-61
2023/01/05 11:40:56;;;;;;;4.77;3.53;;;;;;;;;;5100122;27;20297;-61
2023/01/05 11:43:24;;;;;;;4.90;3.10;;;;;;;;;;5128389;27;20262;-61
2023/01/05 11:45:52;;;;;;;6.67;4.20;;;;;;;;;;5128598;27;20263;-61
2023/01/05 11:48:25;;;;;;;7.33;3.90;;;;;;;;;;5133727;27;20289;-62
2023/01/05 11:50:53;;;;;;;3.63;3.00;;;;;;;;;;5133581;27;20251;-61
2023/01/05 11:53:24;;;;;;;8.97;3.63;;;;;;;;;;5123534;27;20256;-62
2023/01/05 11:56:01;;;;;;;3.33;2.67;;;;;;;;;;5112850;27;20357;-61
2023/01/05 11:58:35;;;;;;;3.33;2.60;;;;;;;;;;5112129;28;20276;-61
2023/01/05 12:01:10;;;;;;;6.73;4.93;;;;;;;;;;5107813;28;20259;-61
2023/01/05 12:03:56;;;;;;;3.03;2.58;;;;;;;;;;5107984;28;20325;-62
2023/01/05 12:06:23;;;;;;;10.07;3.70;;;;;;;;;;5126932;27;20023;-62
2023/01/05 12:09:10;;;;;;;4.73;2.90;;;;;;;;;;5129574;27;20330;-61
2023/01/05 12:11:42;;;;;;;4.00;3.53;;;;;;;;;;5133384;27;20251;-61
2023/01/05 12:14:12;;;;;;;5.40;3.73;;;;;;;;;;5132222;27;20602;-61
2023/01/05 12:16:55;;;;;;;5.90;2.80;;;;;;;;;;5126118;27;20653;-61
2023/01/05 12:19:28;;;;;;;11.00;5.10;;;;;;;;;;5112921;28;20297;-61
2023/01/05 12:21:54;;;;;;;3.57;2.80;;;;;;;;;;5108780;28;20255;-61
2023/01/05 12:24:24;;;;;;;3.53;2.90;;;;;;;;;;5107392;28;20259;-61
2023/01/05 12:27:09;;;;;;;4.93;3.37;;;;;;;;;;5107496;28;20248;-61
2023/01/05 12:30:01;;;;;;;6.45;4.82;;;;;;;;;;5123982;27;20263;-61
2023/01/05 12:32:44;;;;;;;4.43;3.27;;;;;;;;;;5132582;28;20042;-61
2023/01/05 12:35:36;;;;;;;5.27;4.30;;;;;;;;;;5133294;28;20243;-61
2023/01/05 12:38:09;;;;;;;5.27;3.33;;;;;;;;;;5129406;28;20295;-61
2023/01/05 12:40:42;;;;;;;4.77;3.27;;;;;;;;;;5127270;28;20296;-61
2023/01/05 12:43:19;;;;;;;3.20;2.90;;;;;;;;;;5111345;28;20255;-61
2023/01/05 12:46:05;;;;;;;11.00;3.73;;;;;;;;;;5111391;28;20282;-61
2023/01/05 12:48:42;;;;;;;3.10;2.63;;;;;;;;;;5111487;28;20295;-61
2023/01/05 12:51:12;;;;;;;6.40;4.77;;;;;;;;;;5111591;28;20343;-61
2023/01/05 12:53:44;;;;;;;4.47;3.63;;;;;;;;;;5127736;27;20281;-61
2023/01/05 12:56:14;;;;;;;3.77;3.37;;;;;;;;;;5137310;27;20323;-62
2023/01/05 12:58:44;;;;;;;4.07;3.53;;;;;;;;;;5136813;27;20293;-62
2023/01/05 13:01:16;;;;;;;4.83;3.87;;;;;;;;;;5137271;27;20342;-61
2023/01/05 13:04:06;;;;;;;4.40;2.87;;;;;;;;;;5135458;27;20322;-61
2023/01/05 13:06:40;;;;;;;6.03;4.03;;;;;;;;;;5074428;28;20270;-61
2023/01/05 13:09:13;;;;;;;8.23;4.20;;;;;;;;;;5111155;28;20252;-61
2023/01/05 13:11:45;;;;;;;5.20;3.20;;;;;;;;;;5111225;28;20256;-61
2023/01/05 13:14:16;;;;;;;5.53;3.83;;;;;;;;;;5114678;27;20268;-61
2023/01/05 13:16:45;;;;;;;3.63;3.17;;;;;;;;;;5134385;27;20776;-61
2023/01/05 13:19:33;;;;;;;3.30;2.67;;;;;;;;;;5131343;27;20415;-61
2023/01/05 13:22:03;;;;;;;3.60;3.17;;;;;;;;;;5116188;28;20263;-60
2023/01/05 13:24:41;;;;;;;4.07;3.63;;;;;;;;;;5115797;28;20280;-61
2023/01/05 13:27:09;;;;;;;4.97;3.57;;;;;;;;;;5115577;28;20729;-61
2023/01/05 13:29:48;;;;;;;4.53;4.00;;;;;;;;;;5118125;27;20322;-60
2023/01/05 13:32:37;;;;;;;4.23;3.20;;;;;;;;;;5112471;27;20314;-61
2023/01/05 13:35:22;;;;;;;4.20;3.30;;;;;;;;;;5110794;28;20268;-61
2023/01/05 13:38:01;;;;;;;4.30;3.25;;;;;;;;;;5112196;28;20279;-61
2023/01/05 13:40:39;;;;;;;4.23;3.00;;;;;;;;;;5115799;28;20103;-61
2023/01/05 13:43:18;;;;;;;4.70;3.10;;;;;;;;;;5127174;27;20256;-61
2023/01/05 13:45:47;;;;;;;6.70;4.73;;;;;;;;;;5119318;27;20758;-61
2023/01/05 13:48:14;;;;;;;3.67;3.07;;;;;;;;;;5135889;27;20255;-60
2023/01/05 13:50:43;;;;;;;4.87;3.87;;;;;;;;;;5132202;27;20613;-61
2023/01/05 13:53:12;;;;;;;6.00;4.33;;;;;;;;;;5130799;27;20252;-61
2023/01/05 13:55:43;;;;;;;4.60;3.80;;;;;;;;;;5127428;27;20309;-61
2023/01/05 13:58:28;;;;;;;5.97;5.00;;;;;;;;;;5109922;28;20280;-61
2023/01/05 14:00:55;;;;;;;9.88;6.00;;;;;;;;;;5113835;28;20750;-61
2023/01/05 14:04:00;;;;;;;4.93;3.93;;;;;;;;;;5132350;27;20031;-61
2023/01/05 14:06:28;;;;;;;14.53;4.90;;;;;;;;;;5052042;28;20335;-61
2023/01/05 14:09:00;;;;;;;6.87;3.57;;;;;;;;;;5052477;28;20645;-61
2023/01/05 14:11:27;;;;;;;4.00;3.03;;;;;;;;;;5085564;27;20351;-61
2023/01/05 14:14:03;;;;;;;3.43;3.10;;;;;;;;;;5089386;28;20257;-61
2023/01/05 14:16:42;;;;;;;6.40;4.73;;;;;;;;;;5089377;28;20276;-61
2023/01/05 14:19:19;;;;;;;6.00;4.10;;;;;;;;;;5089464;28;20494;-61
2023/01/05 14:21:49;;;;;;;4.77;3.50;;;;;;;;;;5092096;27;20015;-61
2023/01/05 14:24:28;;;;;;;4.60;4.00;;;;;;;;;;5135225;27;20023;-61
2023/01/05 14:27:06;;;;;;;6.03;4.90;;;;;;;;;;5134978;27;20023;-61
2023/01/05 14:29:45;;;;;;;6.20;4.43;;;;;;;;;;5135387;27;20117;-62
2023/01/05 14:32:19;;;;;;;4.13;3.30;;;;;;;;;;5131585;27;20489;-62
2023/01/05 14:34:51;;;;;;;7.63;5.25;;;;;;;;;;5111728;28;20020;-61
2023/01/05 14:37:27;;;;;;;9.43;4.50;;;;;;;;;;5109453;28;20032;-62
2023/01/05 14:39:54;;;;;;;15.33;3.97;;;;;;;;;;5109260;28;20035;-61
2023/01/05 14:42:33;;;;;;;6.20;3.43;;;;;;;;;;5110072;27;20478;-61
2023/01/05 14:45:06;;;;;;;5.97;3.87;;;;;;;;;;5130521;27;20027;-61
2023/01/05 14:47:41;;;;;;;5.87;4.33;;;;;;;;;;5135198;27;20035;-62
2023/01/05 14:50:27;;;;;;;4.70;3.78;;;;;;;;;;5135177;27;20473;-61
2023/01/05 14:52:56;;;;;;;6.60;3.80;;;;;;;;;;5120580;27;20427;-63
2023/01/05 14:55:23;;;;;;;7.20;4.10;;;;;;;;;;5099400;27;20591;-62
2023/01/05 14:57:51;;;;;;;5.73;3.73;;;;;;;;;;5109041;28;20448;-61
2023/01/05 15:00:21;;;;;;;4.90;3.53;;;;;;;;;;5118606;27;20034;-64
2023/01/05 15:02:51;;;;;;;9.27;4.17;;;;;;;;;;5095653;27;20031;-62
2023/01/05 15:05:18;;;;;;;5.13;3.00;;;;;;;;;;5129304;27;20019;-62
2023/01/05 15:08:23;;;;;;;5.60;3.23;;;;;;;;;;5132601;27;20041;-62
2023/01/05 15:10:50;;;;;;;7.83;3.80;;;;;;;;;;5051262;28;20353;-63
2023/01/05 15:13:16;;;;;;;2.50;1.83;;;;;;;;;;5044648;28;20491;-63
2023/01/05 15:15:53;;;;;;;5.47;3.63;;;;;;;;;;5085968;27;20513;-62
2023/01/05 15:18:38;;;;;;;3.83;2.70;;;;;;;;;;5132883;27;20095;-62
2023/01/05 15:21:11;;;;;;;5.38;3.22;;;;;;;;;;5128868;27;20404;-63
2023/01/05 15:23:56;;;;;;;3.10;2.60;;;;;;;;;;5128889;27;20476;-63
2023/01/05 15:26:41;;;;;;;2.67;1.98;;;;;;;;;;5108673;27;20028;-63
2023/01/05 15:29:25;;;;;;;6.30;3.45;;;;;;;;;;5113108;27;20027;-63
2023/01/05 15:31:56;;;;;;;6.57;3.83;;;;;;;;;;5134023;27;20023;-63
2023/01/05 15:34:40;;;;;;;3.87;2.77;;;;;;;;;;5134129;27;20026;-63
2023/01/05 15:37:17;;;;;;;3.67;2.67;;;;;;;;;;5133982;27;20031;-62